Shamrock, Minnesota
Current Conditions -  °F | °C
As of 8:47 AM on Monday 24 Nov 2014 (Local Time) from KHZX Reporting Station
Overcast Overcast  
Wind Chill: 12°   Ceiling: 900
Heat Index: 23°   Visibility: 5mi
Dew Point: 21°   Wind: 10mph
Humidity: 93%   Direction: 300°WNW
Pressure: 29.38"   Gusts: 23mph
Location:  46.7232°N, 93.3159°W
Report Text: KHZX 241447Z AUTO 30009G20KT 5SM OVC009 M05/M06 A2938 RMK AO2
Loading
Personal Weather Stations






























Interactive Weather Map New forecast layout! Learn more

10-Day Weather Forecast

Advertisements
Track Severe Weather on mobile